To NAV CANADA Home Page Login to a new session Search on AWWS site Feedback and Comments Disclaimer Vers la page française équivalente Tips FAQ What's new on the site To the Forecasts and Observations / NOTAM section To "File a Flight Plan" website Publications and other links Update of the User's profile FIC Telephone Numbers My Weather Data Folder Route Weather Data Regional Weather Data Local Weather Data To the Forecasts and Observations / NOTAM section
Request Generated 03/27/2015 at 01:55:23 UTC . Weather information available at that time is displayed.

METAR/TAF

WHITEHORSE/ERIK NIELSEN INTL/YT    

METAR CYXY 270100Z 15014G19KT 40SM FEW062 BKN150 OVC210 05/M03 A2964
RMK CU1AC5CI3 CU TR ACSL SLP068=
METAR CYXY 270000Z 16014G23KT 40SM FEW063 BKN140 OVC210 06/M03 A2964
RMK CU1AC5CI2 ACSL SLP067=
METAR CYXY 262300Z 16016G22KT 40SM FEW063 OVC180 06/M03 A2963 RMK
CU2AC6 SLP066=

TAF CYXY 262338Z 2700/2712 16015G25KT P6SM FEW060 BKN180
BECMG 2708/2710 16012KT
RMK NXT FCST BY 270600Z=
Your time UTC time
Weather data provided by Environment Canada and NAV CANADA